createdAt,value
2022-08-03T00:01:06.119Z,100841.37
2022-08-03T00:02:22.487Z,100844.42
2022-08-03T00:03:38.868Z,100846.84
2022-08-03T00:04:55.288Z,100838.57
2022-08-03T00:06:11.679Z,100841.53
2022-08-03T00:07:28.389Z,100845.80
2022-08-03T00:08:44.791Z,100842.59
2022-08-03T00:10:01.260Z,100842.17
2022-08-03T00:11:19.610Z,100841.05
2022-08-03T00:12:35.983Z,100838.73
2022-08-03T00:13:52.643Z,100841.47
2022-08-03T00:15:11.351Z,100837.03
2022-08-03T00:16:30.322Z,100835.19
2022-08-03T00:17:53.121Z,100833.81
2022-08-03T00:19:09.895Z,100831.49
2022-08-03T00:20:26.594Z,100832.94
2022-08-03T00:21:44.936Z,100830.11
2022-08-03T00:23:01.297Z,100831.88
2022-08-03T00:24:17.708Z,100830.20
2022-08-03T00:25:36.028Z,100828.12
2022-08-03T00:26:52.687Z,100826.66
2022-08-03T00:28:09.048Z,100828.76
2022-08-03T00:29:25.469Z,100827.53
2022-08-03T00:30:41.839Z,100826.02
2022-08-03T00:32:00.675Z,100820.75
2022-08-03T00:33:17.421Z,100821.23
2022-08-03T00:34:36.586Z,100822.64
2022-08-03T00:35:56.022Z,100821.04
2022-08-03T00:37:12.416Z,100820.08
2022-08-03T00:38:28.882Z,100817.50
2022-08-03T00:39:45.542Z,100819.11
2022-08-03T00:41:01.907Z,100818.95
2022-08-03T00:42:18.608Z,100815.41
2022-08-03T00:43:35.126Z,100817.28
2022-08-03T00:44:51.714Z,100822.33
2022-08-03T00:46:08.390Z,100822.87
2022-08-03T00:47:24.865Z,100817.92
2022-08-03T00:48:41.351Z,100819.43
2022-08-03T00:49:57.738Z,100816.63
2022-08-03T00:51:14.110Z,100816.95
2022-08-03T00:52:30.812Z,100816.95
2022-08-03T00:53:47.233Z,100812.94
2022-08-03T00:55:03.619Z,100813.90
2022-08-03T00:56:20.000Z,100816.16
2022-08-03T00:57:38.372Z,100815.51
2022-08-03T00:58:55.025Z,100813.95
2022-08-03T01:00:11.417Z,100814.12
2022-08-03T01:01:32.362Z,100813.80
2022-08-03T01:02:49.102Z,100813.03
2022-08-03T01:04:05.474Z,100811.59
2022-08-03T01:05:24.245Z,100817.50
2022-08-03T01:06:40.614Z,100812.12
2022-08-03T01:07:57.035Z,100810.84
2022-08-03T01:09:13.407Z,100806.11
2022-08-03T01:10:31.652Z,100805.70
2022-08-03T01:12:00.147Z,100808.69
2022-08-03T01:14:01.243Z,100805.86
2022-08-03T01:14:30.816Z,100810.75
2022-08-03T01:15:47.201Z,100807.56
2022-08-03T01:17:03.591Z,100805.15
2022-08-03T01:18:20.338Z,100808.37
2022-08-03T01:19:36.712Z,100806.59
2022-08-03T01:20:53.093Z,100806.83
2022-08-03T01:22:09.550Z,100806.76
2022-08-03T01:23:28.994Z,100801.67
2022-08-03T01:24:47.723Z,100805.70
2022-08-03T01:26:04.157Z,100805.15
2022-08-03T01:27:20.564Z,100801.52
2022-08-03T01:28:36.986Z,100800.97
2022-08-03T01:29:55.333Z,100801.13
2022-08-03T01:31:11.986Z,100800.88
2022-08-03T01:32:59.944Z,100803.38
2022-08-03T01:33:49.636Z,100802.58
2022-08-03T01:35:07.979Z,100799.36
2022-08-03T01:36:24.460Z,100793.89
2022-08-03T01:37:43.099Z,100792.61
2022-08-03T01:38:59.469Z,100796.14
2022-08-03T01:40:15.858Z,100795.41
2022-08-03T01:41:32.230Z,100791.54
2022-08-03T01:42:48.652Z,100792.61
2022-08-03T01:44:29.417Z,100794.86
2022-08-03T01:45:27.481Z,100790.09
2022-08-03T01:46:48.761Z,100791.00
2022-08-03T01:48:05.421Z,100793.15
2022-08-03T01:49:23.833Z,100789.30
2022-08-03T01:50:40.485Z,100787.20
2022-08-03T01:52:04.486Z,100784.72
2022-08-03T01:53:20.077Z,100787.04
2022-08-03T01:54:36.437Z,100789.30
2022-08-03T01:55:52.816Z,100788.81
2022-08-03T01:57:09.483Z,100785.69
2022-08-03T01:58:25.967Z,100787.20
2022-08-03T01:59:42.345Z,100785.53
2022-08-03T02:01:00.750Z,100782.05
2022-08-03T02:02:33.469Z,100784.72
2022-08-03T02:03:38.392Z,100782.31
2022-08-03T02:04:59.611Z,100785.20
2022-08-03T02:07:00.697Z,100786.30
2022-08-03T02:07:40.123Z,100785.37
2022-08-03T02:08:57.753Z,100786.33
2022-08-03T02:10:14.137Z,100788.42
2022-08-03T02:11:30.555Z,100790.58
2022-08-03T02:12:50.982Z,100787.69
2022-08-03T02:14:07.511Z,100789.23
2022-08-03T02:15:24.185Z,100787.46
2022-08-03T02:16:42.924Z,100788.91
2022-08-03T02:17:59.287Z,100790.67
2022-08-03T02:19:15.666Z,100786.33
2022-08-03T02:20:32.038Z,100791.16
2022-08-03T02:21:56.927Z,100791.70
2022-08-03T02:23:09.970Z,100790.67
2022-08-03T02:24:26.348Z,100792.57
2022-08-03T02:25:42.721Z,100788.64
2022-08-03T02:26:59.151Z,100788.00
2022-08-03T02:28:15.810Z,100791.00
2022-08-03T02:29:39.418Z,100789.55
2022-08-03T02:30:53.882Z,100788.33
2022-08-03T02:32:10.442Z,100790.03
2022-08-03T02:33:26.801Z,100791.22
2022-08-03T02:34:43.462Z,100790.73
2022-08-03T02:35:59.851Z,100787.52
2022-08-03T02:37:16.253Z,100792.12
2022-08-03T02:38:32.625Z,100792.77
2022-08-03T02:39:49.008Z,100794.22
2022-08-03T02:41:05.646Z,100792.99
2022-08-03T02:42:22.108Z,100790.90
2022-08-03T02:43:57.635Z,100788.17
2022-08-03T02:44:59.785Z,100789.94
2022-08-03T02:46:16.154Z,100788.00
2022-08-03T02:47:53.960Z,100788.10
2022-08-03T02:48:54.101Z,100787.52
2022-08-03T02:50:10.495Z,100784.08
2022-08-03T02:51:28.798Z,100787.84
2022-08-03T02:52:45.210Z,100787.36
2022-08-03T02:54:01.871Z,100787.94
2022-08-03T02:55:18.250Z,100790.03
2022-08-03T02:56:34.632Z,100785.20
2022-08-03T02:57:51.094Z,100786.33
2022-08-03T02:59:07.455Z,100784.41
2022-08-03T03:00:28.375Z,100783.82
2022-08-03T03:01:44.994Z,100781.99
2022-08-03T03:03:01.465Z,100783.34
2022-08-03T03:04:17.816Z,100784.89
2022-08-03T03:05:54.926Z,100782.89
2022-08-03T03:07:01.837Z,100782.38
2022-08-03T03:08:25.913Z,100781.99
2022-08-03T03:09:45.787Z,100783.28
2022-08-03T03:11:02.167Z,100782.80
2022-08-03T03:12:18.804Z,100782.38
2022-08-03T03:13:35.219Z,100776.69
2022-08-03T03:14:51.580Z,100777.97
2022-08-03T03:16:07.961Z,100781.99
2022-08-03T03:17:24.331Z,100778.39
2022-08-03T03:18:41.021Z,100785.84
2022-08-03T03:19:59.352Z,100784.41
2022-08-03T03:21:16.557Z,100784.14
2022-08-03T03:22:36.482Z,100784.89
2022-08-03T03:23:54.849Z,100784.95
2022-08-03T03:25:11.498Z,100779.26
2022-08-03T03:26:27.876Z,100785.85
2022-08-03T03:27:44.265Z,100785.11
2022-08-03T03:29:05.567Z,100786.11
2022-08-03T03:30:23.916Z,100782.47
2022-08-03T03:31:40.576Z,100786.49
2022-08-03T03:32:56.946Z,100782.25
2022-08-03T03:34:15.319Z,100778.23
2022-08-03T03:35:37.160Z,100781.12
2022-08-03T03:36:56.499Z,100780.96
2022-08-03T03:38:13.157Z,100783.59
2022-08-03T03:39:31.511Z,100780.06
2022-08-03T03:40:47.882Z,100781.83
2022-08-03T03:42:04.273Z,100785.69
2022-08-03T03:43:20.641Z,100785.69
2022-08-03T03:44:37.354Z,100785.53
2022-08-03T03:45:53.742Z,100779.36
2022-08-03T03:47:12.075Z,100780.80
2022-08-03T03:48:32.280Z,100784.24
2022-08-03T03:49:48.725Z,100782.16
2022-08-03T03:51:09.835Z,100785.37
2022-08-03T03:52:26.266Z,100784.56
2022-08-03T03:53:44.637Z,100783.22
2022-08-03T03:55:03.066Z,100783.28
2022-08-03T03:56:19.427Z,100782.89
2022-08-03T03:57:36.097Z,100781.61
2022-08-03T03:58:52.494Z,100783.28
2022-08-03T04:00:10.841Z,100778.30
2022-08-03T04:01:29.170Z,100777.48
2022-08-03T04:02:47.509Z,100777.42
2022-08-03T04:04:06.159Z,100777.59
2022-08-03T04:05:24.516Z,100782.47
2022-08-03T04:06:42.831Z,100783.28
2022-08-03T04:07:59.204Z,100785.53
2022-08-03T04:09:15.613Z,100783.70
2022-08-03T04:10:32.305Z,100783.54
2022-08-03T04:11:50.633Z,100784.89
2022-08-03T04:13:07.024Z,100787.40
2022-08-03T04:14:25.404Z,100784.34
2022-08-03T04:15:43.754Z,100781.28
2022-08-03T04:17:00.407Z,100783.28
2022-08-03T04:18:18.749Z,100781.19
2022-08-03T04:19:37.815Z,100782.25
2022-08-03T04:20:54.398Z,100784.08
2022-08-03T04:22:12.753Z,100782.95
2022-08-03T04:23:29.468Z,100785.47
2022-08-03T04:24:45.890Z,100785.37
2022-08-03T04:26:02.336Z,100788.20
2022-08-03T04:27:18.700Z,100783.70
2022-08-03T04:28:37.072Z,100788.36
2022-08-03T04:29:55.732Z,100790.52
2022-08-03T04:31:14.103Z,100790.45
2022-08-03T04:32:32.541Z,100788.91
2022-08-03T04:33:50.893Z,100785.79
2022-08-03T04:35:09.265Z,100786.50
2022-08-03T04:36:27.903Z,100784.02
2022-08-03T04:37:45.708Z,100785.62
2022-08-03T04:39:04.065Z,100789.33
2022-08-03T04:40:22.957Z,100789.71
2022-08-03T04:42:04.712Z,100788.05
2022-08-03T04:43:02.851Z,100792.80
2022-08-03T04:44:21.178Z,100792.80
2022-08-03T04:45:43.329Z,100794.96
2022-08-03T04:47:01.779Z,100793.52
2022-08-03T04:48:20.120Z,100796.98
2022-08-03T04:49:36.908Z,100797.38
2022-08-03T04:50:55.281Z,100796.50
2022-08-03T04:52:13.949Z,100795.38
2022-08-03T04:53:32.372Z,100794.80
2022-08-03T04:54:51.153Z,100799.20
2022-08-03T04:56:08.815Z,100799.52
2022-08-03T04:57:26.260Z,100798.88
2022-08-03T04:58:44.653Z,100799.52
2022-08-03T05:00:03.695Z,100795.50
2022-08-03T05:01:21.133Z,100800.55
2022-08-03T05:02:39.787Z,100800.70
2022-08-03T05:03:58.147Z,100798.62
2022-08-03T05:05:17.177Z,100801.19
2022-08-03T05:06:35.596Z,100802.38
2022-08-03T05:07:54.121Z,100803.73
2022-08-03T05:09:13.085Z,100803.67
2022-08-03T05:10:31.854Z,100803.02
2022-08-03T05:11:50.251Z,100799.22
2022-08-03T05:13:06.903Z,100802.02
2022-08-03T05:14:28.374Z,100798.74
2022-08-03T05:15:45.159Z,100801.54
2022-08-03T05:17:03.572Z,100801.05
2022-08-03T05:18:20.994Z,100802.50
2022-08-03T05:19:38.525Z,100795.42
2022-08-03T05:20:56.895Z,100798.31
2022-08-03T05:22:14.914Z,100793.08
2022-08-03T05:23:32.918Z,100795.59
2022-08-03T05:24:51.378Z,100796.12
2022-08-03T05:26:08.736Z,100796.70
2022-08-03T05:27:28.539Z,100797.19
2022-08-03T05:28:50.755Z,100799.60
2022-08-03T05:30:30.879Z,100795.48
2022-08-03T05:31:31.564Z,100798.22
2022-08-03T05:32:48.029Z,100796.67
2022-08-03T05:34:07.172Z,100795.39
2022-08-03T05:36:00.564Z,100795.39
2022-08-03T05:36:48.255Z,100800.31
2022-08-03T05:38:05.576Z,100798.59
2022-08-03T05:39:24.686Z,100796.19
2022-08-03T05:40:56.818Z,100790.34
2022-08-03T05:42:06.097Z,100789.11
2022-08-03T05:43:24.419Z,100793.73
2022-08-03T05:44:41.879Z,100796.09
2022-08-03T05:46:11.547Z,100795.61
2022-08-03T05:47:23.210Z,100791.27
2022-08-03T05:48:39.729Z,100797.66
2022-08-03T05:49:57.140Z,100797.59
2022-08-03T05:51:14.554Z,100797.50
2022-08-03T05:52:31.961Z,100800.39
2022-08-03T05:53:49.876Z,100800.88
2022-08-03T05:55:07.246Z,100802.32
2022-08-03T05:56:24.733Z,100797.44
2022-08-03T05:57:44.257Z,100803.77
2022-08-03T05:59:22.695Z,100809.30
2022-08-03T06:00:27.339Z,100811.23
2022-08-03T06:01:48.043Z,100808.34
2022-08-03T06:03:05.508Z,100810.59
2022-08-03T06:04:24.468Z,100812.52
2022-08-03T06:05:43.379Z,100810.59
2022-08-03T06:07:09.829Z,100811.23
2022-08-03T06:08:32.488Z,100813.16
2022-08-03T06:10:33.783Z,100812.09
2022-08-03T06:11:13.710Z,100811.23
2022-08-03T06:12:32.590Z,100809.95
2022-08-03T06:13:50.999Z,100814.34
2022-08-03T06:15:11.543Z,100811.71
2022-08-03T06:16:30.848Z,100811.88
2022-08-03T06:17:48.475Z,100809.84
2022-08-03T06:19:07.497Z,100812.41
2022-08-03T06:20:27.439Z,100809.68
2022-08-03T06:21:45.067Z,100812.16
2022-08-03T06:23:04.036Z,100811.06
2022-08-03T06:24:25.386Z,100813.87
2022-08-03T06:25:44.484Z,100811.12
2022-08-03T06:27:03.377Z,100810.00
2022-08-03T06:28:51.241Z,100808.72
2022-08-03T06:29:42.439Z,100812.09
2022-08-03T06:31:02.431Z,100809.84
2022-08-03T06:32:21.799Z,100808.62
2022-08-03T06:34:22.826Z,100809.52
2022-08-03T06:35:02.985Z,100810.64
2022-08-03T06:36:21.223Z,100811.12
2022-08-03T06:37:40.645Z,100809.10
2022-08-03T06:38:58.207Z,100809.20
2022-08-03T06:40:14.851Z,100808.72
2022-08-03T06:41:44.682Z,100808.39
2022-08-03T06:43:03.411Z,100807.59
2022-08-03T06:44:21.726Z,100807.81
2022-08-03T06:45:39.196Z,100810.06
2022-08-03T06:46:57.850Z,100808.39
2022-08-03T06:50:17.107Z,100807.73
2022-08-03T06:52:04.595Z,100811.08
2022-08-03T06:52:52.206Z,100815.25
2022-08-03T06:54:11.150Z,100814.70
2022-08-03T06:55:27.705Z,100814.88
2022-08-03T06:56:46.764Z,100812.62
2022-08-03T06:58:03.612Z,100813.48
2022-08-03T07:00:08.177Z,100814.93
2022-08-03T07:00:42.527Z,100814.55
2022-08-03T07:01:59.197Z,100815.09
2022-08-03T07:03:16.614Z,100815.73
2022-08-03T07:04:34.133Z,100819.05
2022-08-03T07:05:53.305Z,100821.37
2022-08-03T07:07:12.798Z,100815.52
2022-08-03T07:08:33.683Z,100822.91
2022-08-03T07:09:55.660Z,100820.82
2022-08-03T07:11:15.483Z,100825.00
2022-08-03T07:12:35.972Z,100824.75
2022-08-03T07:13:53.567Z,100827.26
2022-08-03T07:15:20.127Z,100823.88
2022-08-03T07:16:34.518Z,100822.11
2022-08-03T07:17:53.478Z,100823.94
2022-08-03T07:19:11.914Z,100826.41
2022-08-03T07:20:32.672Z,100823.39
2022-08-03T07:21:49.289Z,100826.58
2022-08-03T07:23:19.205Z,100827.70
2022-08-03T07:24:34.422Z,100826.67
2022-08-03T07:25:52.159Z,100827.38
2022-08-03T07:27:11.144Z,100826.96
2022-08-03T07:28:30.232Z,100825.03
2022-08-03T07:29:49.074Z,100824.87
2022-08-03T07:31:13.905Z,100826.47
2022-08-03T07:32:35.025Z,100827.77
2022-08-03T07:33:54.124Z,100830.33
2022-08-03T07:35:22.731Z,100834.84
2022-08-03T07:36:35.255Z,100834.48
2022-08-03T07:37:55.303Z,100833.52
2022-08-03T07:39:17.510Z,100835.12
2022-08-03T07:40:37.412Z,100832.88
2022-08-03T07:41:54.855Z,100831.27
2022-08-03T07:43:12.392Z,100830.30
2022-08-03T07:44:32.209Z,100832.45
2022-08-03T07:45:50.071Z,100831.38
2022-08-03T07:47:22.456Z,100827.14
2022-08-03T07:48:34.662Z,100829.30
2022-08-03T07:49:54.672Z,100828.97
2022-08-03T07:51:14.884Z,100828.00
2022-08-03T07:52:33.937Z,100831.55
2022-08-03T07:53:51.526Z,100828.71
2022-08-03T07:55:10.359Z,100831.70
2022-08-03T07:56:29.686Z,100834.98
2022-08-03T07:57:48.755Z,100831.50
2022-08-03T07:59:07.858Z,100829.19
2022-08-03T08:00:26.321Z,100828.77
2022-08-03T08:01:45.318Z,100824.78
2022-08-03T08:03:06.408Z,100826.52
2022-08-03T08:04:23.791Z,100824.97
2022-08-03T08:05:40.398Z,100828.28
2022-08-03T08:06:59.112Z,100833.11
2022-08-03T08:08:17.383Z,100830.53
2022-08-03T08:09:41.236Z,100830.17
2022-08-03T08:11:00.009Z,100824.48
2022-08-03T08:12:17.858Z,100827.70
2022-08-03T08:13:37.575Z,100824.55
2022-08-03T08:14:56.476Z,100824.33
2022-08-03T08:16:13.492Z,100822.61
2022-08-03T08:17:32.480Z,100827.34
2022-08-03T08:18:50.087Z,100821.33
2022-08-03T08:20:09.067Z,100825.77
2022-08-03T08:21:26.878Z,100822.45
2022-08-03T08:22:49.080Z,100825.03
2022-08-03T08:24:11.066Z,100818.20
2022-08-03T08:25:33.441Z,100825.58
2022-08-03T08:26:50.879Z,100824.06
2022-08-03T08:28:30.434Z,100825.67
2022-08-03T08:29:31.972Z,100823.80
2022-08-03T08:30:49.650Z,100821.71
2022-08-03T08:32:08.528Z,100825.25
2022-08-03T08:33:42.119Z,100824.86
2022-08-03T08:34:53.411Z,100823.09
2022-08-03T08:36:15.202Z,100822.12
2022-08-03T08:37:32.938Z,100816.56
2022-08-03T08:38:50.312Z,100817.20
2022-08-03T08:40:08.776Z,100826.47
2022-08-03T08:41:25.593Z,100821.16
2022-08-03T08:42:57.970Z,100827.50
2022-08-03T08:44:11.437Z,100826.86
2022-08-03T08:45:32.854Z,100826.44
2022-08-03T08:46:49.359Z,100827.73
2022-08-03T08:48:08.547Z,100828.47
2022-08-03T08:49:30.316Z,100827.30
2022-08-03T08:50:50.620Z,100823.16
2022-08-03T08:52:25.117Z,100826.08
2022-08-03T08:53:29.746Z,100821.93
2022-08-03T08:54:48.144Z,100820.16
2022-08-03T08:56:07.290Z,100821.45
2022-08-03T08:57:42.435Z,100821.61
2022-08-03T08:58:51.187Z,100818.67
2022-08-03T09:00:09.994Z,100827.52
2022-08-03T09:01:27.561Z,100822.22
2022-08-03T09:02:46.568Z,100821.08
2022-08-03T09:05:56.082Z,100821.45
2022-08-03T09:07:20.624Z,100819.48
2022-08-03T09:08:38.932Z,100825.75
2022-08-03T09:10:12.591Z,100823.62
2022-08-03T09:11:19.517Z,100822.44
2022-08-03T09:12:42.934Z,100822.23
2022-08-03T09:14:03.721Z,100818.95
2022-08-03T09:15:22.037Z,100820.45
2022-08-03T09:16:40.874Z,100822.71
2022-08-03T09:17:58.203Z,100815.05
2022-08-03T09:19:16.590Z,100822.29
2022-08-03T09:20:35.758Z,100817.14
2022-08-03T09:21:53.109Z,100819.83
2022-08-03T09:23:51.914Z,100815.91
2022-08-03T09:24:41.249Z,100816.03
2022-08-03T09:25:56.321Z,100817.90
2022-08-03T09:27:18.277Z,100815.32
2022-08-03T09:29:01.225Z,100818.60
2022-08-03T09:29:59.615Z,100812.75
2022-08-03T09:31:17.227Z,100812.23
2022-08-03T09:32:36.116Z,100808.84
2022-08-03T09:33:53.488Z,100816.25
2022-08-03T09:35:10.925Z,100813.94
2022-08-03T09:36:30.338Z,100811.10
2022-08-03T09:38:12.323Z,100811.59
2022-08-03T09:39:12.381Z,100813.19
2022-08-03T09:40:31.877Z,100810.78
2022-08-03T09:41:50.479Z,100811.52
2022-08-03T09:43:09.013Z,100814.12
2022-08-03T09:44:26.381Z,100808.81
2022-08-03T09:45:43.869Z,100810.73
2022-08-03T09:47:01.190Z,100811.97
2022-08-03T09:48:18.625Z,100812.66
2022-08-03T09:49:37.814Z,100810.58
2022-08-03T09:50:58.642Z,100808.48
2022-08-03T09:52:39.295Z,100804.20
2022-08-03T09:53:40.536Z,100807.90
2022-08-03T09:55:04.833Z,100813.53
2022-08-03T09:56:34.260Z,100812.14
2022-08-03T09:57:50.245Z,100809.09
2022-08-03T09:59:07.575Z,100813.11
2022-08-03T10:00:24.949Z,100811.34
2022-08-03T10:01:42.650Z,100808.27
2022-08-03T10:02:59.977Z,100813.64
2022-08-03T10:04:19.308Z,100819.83
2022-08-03T10:05:38.631Z,100812.19
2022-08-03T10:06:57.539Z,100813.16
2022-08-03T10:08:15.151Z,100815.15
2022-08-03T10:09:33.831Z,100815.47
2022-08-03T10:10:52.181Z,100816.54
2022-08-03T10:12:09.662Z,100811.12
2022-08-03T10:13:28.512Z,100809.67
2022-08-03T10:14:46.137Z,100813.76
2022-08-03T10:16:23.237Z,100810.53
2022-08-03T10:17:27.268Z,100809.09
2022-08-03T10:18:46.084Z,100810.76
2022-08-03T10:20:05.279Z,100805.77
2022-08-03T10:21:22.647Z,100809.31
2022-08-03T10:22:41.524Z,100812.75
2022-08-03T10:23:58.825Z,100815.58
2022-08-03T10:25:17.827Z,100805.28
2022-08-03T10:26:35.491Z,100810.66
2022-08-03T10:27:53.847Z,100804.47
2022-08-03T10:29:12.823Z,100803.09
2022-08-03T10:30:30.390Z,100800.57
2022-08-03T10:31:57.625Z,100796.93
2022-08-03T10:33:12.108Z,100798.48
2022-08-03T10:34:34.288Z,100801.11
2022-08-03T10:35:53.172Z,100792.84
2022-08-03T10:37:11.253Z,100797.25
2022-08-03T10:38:28.613Z,100799.18
2022-08-03T10:39:47.003Z,100795.97
2022-08-03T10:41:04.364Z,100792.58
2022-08-03T10:42:22.706Z,100796.60
2022-08-03T10:43:42.410Z,100792.80
2022-08-03T10:45:01.337Z,100789.84
2022-08-03T10:46:20.555Z,100787.48
2022-08-03T10:47:39.417Z,100789.64
2022-08-03T10:48:57.166Z,100784.84
2022-08-03T10:50:16.956Z,100788.12
2022-08-03T10:51:38.619Z,100784.91
2022-08-03T10:53:03.954Z,100779.98
2022-08-03T10:54:23.400Z,100778.69
2022-08-03T10:55:43.140Z,100779.75
2022-08-03T10:57:14.701Z,100784.31
2022-08-03T10:58:30.685Z,100779.11
2022-08-03T10:59:46.292Z,100775.57
2022-08-03T11:01:05.054Z,100772.25
2022-08-03T11:02:24.432Z,100776.27
2022-08-03T11:03:43.116Z,100767.96
2022-08-03T11:05:01.966Z,100773.91
2022-08-03T11:06:21.287Z,100772.24
2022-08-03T11:07:38.985Z,100771.50
2022-08-03T11:08:57.099Z,100771.19
2022-08-03T11:10:15.921Z,100769.83
2022-08-03T11:11:34.248Z,100772.62
2022-08-03T11:12:51.599Z,100769.47
2022-08-03T11:14:10.760Z,100759.33
2022-08-03T11:15:30.070Z,100766.25
2022-08-03T11:16:48.899Z,100765.92
2022-08-03T11:18:11.156Z,100759.16
2022-08-03T11:19:28.842Z,100761.63
2022-08-03T11:20:47.962Z,100757.45
2022-08-03T11:22:05.302Z,100755.20
2022-08-03T11:24:03.357Z,100753.26
2022-08-03T11:24:48.567Z,100752.36
2022-08-03T11:26:07.357Z,100752.13
2022-08-03T11:27:26.464Z,100750.10
2022-08-03T11:28:45.174Z,100750.68
2022-08-03T11:30:04.019Z,100748.65
2022-08-03T11:31:46.924Z,100745.97
2022-08-03T11:32:48.498Z,100754.34
2022-08-03T11:34:08.649Z,100752.19
2022-08-03T11:35:25.958Z,100755.15
2022-08-03T11:36:47.237Z,100753.70
2022-08-03T11:38:06.137Z,100758.69
2022-08-03T11:39:25.189Z,100757.23
2022-08-03T11:40:44.305Z,100751.55
2022-08-03T11:42:03.290Z,100748.87
2022-08-03T11:43:20.702Z,100750.05
2022-08-03T11:44:40.072Z,100754.98
2022-08-03T11:45:58.902Z,100762.55
2022-08-03T11:47:18.408Z,100757.36
2022-08-03T11:48:39.051Z,100763.15
2022-08-03T11:49:58.089Z,100757.61
2022-08-03T11:51:17.500Z,100751.23
2022-08-03T11:52:35.317Z,100756.45
2022-08-03T11:53:52.929Z,100754.77
2022-08-03T11:55:10.277Z,100750.65
2022-08-03T11:56:28.138Z,100755.96
2022-08-03T11:59:01.446Z,100752.90
2022-08-03T11:59:20.395Z,100760.95
2022-08-03T12:00:32.102Z,100755.48
2022-08-03T12:01:49.467Z,100757.09
2022-08-03T12:03:07.133Z,100757.24
2022-08-03T12:04:25.617Z,100751.99
2022-08-03T12:05:51.895Z,100755.80
2022-08-03T12:07:08.364Z,100755.38
2022-08-03T12:08:26.697Z,100761.17
2022-08-03T12:09:44.025Z,100760.47
2022-08-03T12:11:01.395Z,100763.10
2022-08-03T12:12:21.945Z,100762.36
2022-08-03T12:14:45.530Z,100757.14
2022-08-03T12:15:05.945Z,100757.84
2022-08-03T12:16:23.305Z,100758.48
2022-08-03T12:17:40.704Z,100754.46
2022-08-03T12:18:59.859Z,100752.91
2022-08-03T12:20:19.611Z,100746.73
2022-08-03T12:21:36.960Z,100750.43
2022-08-03T12:22:55.879Z,100745.92
2022-08-03T12:24:14.500Z,100747.81
2022-08-03T12:25:39.069Z,100744.91
2022-08-03T12:26:58.576Z,100750.61
2022-08-03T12:28:35.976Z,100752.22
2022-08-03T12:29:40.762Z,100749.80
2022-08-03T12:30:58.097Z,100745.77
2022-08-03T12:32:17.355Z,100747.92
2022-08-03T12:33:36.944Z,100749.05
2022-08-03T12:34:55.385Z,100742.88
2022-08-03T12:36:14.227Z,100743.89
2022-08-03T12:37:33.691Z,100745.45
2022-08-03T12:38:52.988Z,100741.97
2022-08-03T12:40:15.166Z,100739.48
2022-08-03T12:41:34.414Z,100738.16
2022-08-03T12:42:52.843Z,100738.22
2022-08-03T12:44:11.675Z,100744.02
2022-08-03T12:45:29.689Z,100749.91
2022-08-03T12:46:48.571Z,100744.91
2022-08-03T12:48:06.681Z,100747.48
2022-08-03T12:49:23.895Z,100740.88
2022-08-03T12:50:40.550Z,100745.45
2022-08-03T12:52:00.785Z,100742.17
2022-08-03T12:53:22.192Z,100743.68
2022-08-03T12:54:39.582Z,100742.78
2022-08-03T12:56:05.751Z,100737.78
2022-08-03T12:57:21.194Z,100736.50
2022-08-03T12:58:39.754Z,100739.13
2022-08-03T12:59:57.569Z,100738.75
2022-08-03T13:01:15.059Z,100740.04
2022-08-03T13:02:32.542Z,100732.14
2022-08-03T13:03:52.854Z,100734.95
2022-08-03T13:05:11.418Z,100732.47
2022-08-03T13:06:28.827Z,100732.47
2022-08-03T13:07:46.243Z,100735.97
2022-08-03T13:09:03.606Z,100733.23
2022-08-03T13:10:22.775Z,100732.53
2022-08-03T13:11:53.636Z,100733.71
2022-08-03T13:13:01.461Z,100727.59
2022-08-03T13:14:20.582Z,100721.41
2022-08-03T13:15:38.693Z,100731.61
2022-08-03T13:17:00.162Z,100727.20
2022-08-03T13:18:18.634Z,100730.22
2022-08-03T13:19:37.004Z,100727.11
2022-08-03T13:20:54.426Z,100726.20
2022-08-03T13:22:11.796Z,100732.09
2022-08-03T13:23:29.469Z,100730.55
2022-08-03T13:24:48.325Z,100726.12
2022-08-03T13:26:07.176Z,100736.66
2022-08-03T13:28:03.447Z,100728.92
2022-08-03T13:28:48.374Z,100725.80
2022-08-03T13:30:07.493Z,100726.84
2022-08-03T13:31:24.278Z,100723.07
2022-08-03T13:32:45.109Z,100728.28
2022-08-03T13:34:03.440Z,100729.14
2022-08-03T13:35:22.272Z,100731.98
2022-08-03T13:37:07.421Z,100729.08
2022-08-03T13:38:04.883Z,100724.97
2022-08-03T13:39:32.453Z,100721.19
2022-08-03T13:40:49.843Z,100718.04
2022-08-03T13:42:09.020Z,100721.53
2022-08-03T13:43:26.634Z,100722.86
2022-08-03T13:44:43.974Z,100727.64
2022-08-03T13:46:02.584Z,100721.73
2022-08-03T13:47:21.336Z,100725.40
2022-08-03T13:48:39.019Z,100720.30
2022-08-03T13:50:01.826Z,100723.45
2022-08-03T13:51:22.104Z,100724.48
2022-08-03T13:52:40.088Z,100718.30
2022-08-03T13:53:57.960Z,100716.91
2022-08-03T13:55:15.354Z,100718.12
2022-08-03T13:56:33.980Z,100712.98
2022-08-03T13:58:03.796Z,100715.78
2022-08-03T13:59:15.341Z,100710.34
2022-08-03T14:00:32.701Z,100708.25
2022-08-03T14:01:55.416Z,100708.16
2022-08-03T14:03:14.697Z,100705.03
2022-08-03T14:04:33.334Z,100708.58
2022-08-03T14:05:51.784Z,100709.28
2022-08-03T14:07:09.361Z,100704.23
2022-08-03T14:08:26.967Z,100702.88
2022-08-03T14:09:45.406Z,100706.42
2022-08-03T14:11:03.927Z,100708.04
2022-08-03T14:12:21.399Z,100699.94
2022-08-03T14:13:39.767Z,100700.05
2022-08-03T14:15:01.123Z,100700.80
2022-08-03T14:16:19.055Z,100695.91
2022-08-03T14:17:42.169Z,100694.62
2022-08-03T14:19:02.365Z,100698.17
2022-08-03T14:20:37.290Z,100697.03
2022-08-03T14:21:44.013Z,100690.48
2022-08-03T14:23:07.276Z,100694.08
2022-08-03T14:24:25.722Z,100691.61
2022-08-03T14:25:50.204Z,100695.47
2022-08-03T14:27:09.213Z,100696.44
2022-08-03T14:28:29.634Z,100695.15
2022-08-03T14:29:49.953Z,100697.62
2022-08-03T14:32:09.288Z,100698.69
2022-08-03T14:32:31.751Z,100698.77
2022-08-03T14:33:50.592Z,100696.12
2022-08-03T14:35:08.047Z,100690.49
2022-08-03T14:36:25.599Z,100689.69
2022-08-03T14:37:44.038Z,100691.98
2022-08-03T14:39:02.522Z,100688.92
2022-08-03T14:40:20.894Z,100685.77
2022-08-03T14:41:39.212Z,100688.77
2022-08-03T14:42:57.181Z,100684.09
2022-08-03T14:44:15.775Z,100686.30
2022-08-03T14:45:34.342Z,100688.45
2022-08-03T14:46:52.769Z,100680.17
2022-08-03T14:50:29.595Z,100683.14
2022-08-03T14:50:36.069Z,100681.80
2022-08-03T14:50:57.982Z,100681.47
2022-08-03T14:52:16.343Z,100681.95
2022-08-03T14:53:34.717Z,100677.83
2022-08-03T14:54:53.136Z,100677.16
2022-08-03T14:56:11.524Z,100674.42
2022-08-03T14:57:30.187Z,100673.53
2022-08-03T14:58:46.638Z,100675.88
2022-08-03T15:00:03.124Z,100673.14
2022-08-03T15:02:05.546Z,100671.48
2022-08-03T15:02:44.765Z,100668.73